Time;durP1;ratioP1;P1;durP2;ratioP2;P2;SDS_P1;SDS_P2;PMS_P1;PMS_P2;Temp;Humidity;BMP_temperature;BMP_pressure;BME280_temperature;BME280_humidity;BME280_pressure;Samples;Min_cycle;Max_cycle;Signal;HPM_P1;HPM_P2
2021/07/08 00:01:53;;;;;;;1.85;0.90;;;;;;;18.82;74.58;100776.25;5059931;28;20036;-84
2021/07/08 00:04:19;;;;;;;1.10;0.70;;;;;;;18.82;75.22;100784.28;5057393;28;20045;-84
2021/07/08 00:06:44;;;;;;;1.30;0.80;;;;;;;18.81;75.27;100788.00;5058800;28;20493;-83
2021/07/08 00:09:10;;;;;;;1.98;0.70;;;;;;;18.80;76.39;100781.78;5073521;28;20120;-84
2021/07/08 00:11:37;;;;;;;1.35;0.90;;;;;;;18.80;75.93;100778.28;5056177;28;20033;-84
2021/07/08 00:14:03;;;;;;;1.00;0.70;;;;;;;18.78;75.67;100767.78;5056434;28;20033;-84
2021/07/08 00:16:29;;;;;;;1.17;0.80;;;;;;;18.82;76.17;100770.88;5058006;28;20120;-83
2021/07/08 00:18:55;;;;;;;1.83;0.85;;;;;;;18.84;75.09;100764.28;5054904;28;20065;-84
2021/07/08 00:21:21;;;;;;;1.80;0.82;;;;;;;18.84;75.83;100766.97;5062015;28;20120;-84
2021/07/08 00:23:48;;;;;;;2.42;0.75;;;;;;;18.87;75.75;100768.41;5066968;28;20528;-84
2021/07/08 00:26:13;;;;;;;1.08;0.82;;;;;;;18.84;75.53;100766.16;5058911;28;20064;-84
2021/07/08 00:28:39;;;;;;;1.45;0.70;;;;;;;18.83;75.12;100767.16;5054210;28;20045;-84
2021/07/08 00:31:04;;;;;;;0.98;0.70;;;;;;;18.85;75.43;100779.34;5058557;28;20074;-83
2021/07/08 00:33:30;;;;;;;1.55;0.90;;;;;;;18.87;74.83;100774.59;5061673;28;20056;-84
2021/07/08 00:35:55;;;;;;;1.42;0.82;;;;;;;18.89;74.57;100771.72;5053839;28;20037;-84
2021/07/08 00:38:20;;;;;;;1.65;0.90;;;;;;;18.86;75.93;100764.94;5052808;28;20515;-84
2021/07/08 00:40:46;;;;;;;2.10;0.90;;;;;;;18.89;74.45;100767.19;5061626;28;20033;-84
2021/07/08 00:43:13;;;;;;;1.25;0.80;;;;;;;18.89;74.55;100769.88;5074430;28;20061;-84
2021/07/08 00:45:39;;;;;;;1.00;0.70;;;;;;;18.86;75.40;100772.97;5055869;28;20439;-85
2021/07/08 00:48:05;;;;;;;4.28;1.00;;;;;;;18.82;75.56;100766.34;5060028;28;20123;-84
2021/07/08 00:50:36;;;;;;;2.08;0.70;;;;;;;18.82;75.92;100782.41;5055466;28;20041;-84
2021/07/08 00:53:04;;;;;;;;;;;;;;;18.81;75.74;100775.41;5059365;28;20036;-84
2021/07/08 00:55:30;;;;;;;1.55;0.90;;;;;;;18.83;75.66;100780.56;5053566;28;19917;-84
2021/07/08 00:57:55;;;;;;;1.50;0.80;;;;;;;18.82;75.98;100779.75;5058143;28;20060;-84
2021/07/08 01:00:22;;;;;;;2.00;0.90;;;;;;;18.80;75.69;100771.06;5078225;28;20512;-85
2021/07/08 01:02:49;;;;;;;1.08;0.85;;;;;;;18.81;75.56;100764.69;5054521;28;20056;-84
2021/07/08 01:05:16;;;;;;;1.25;0.73;;;;;;;18.82;74.78;100760.16;5048838;28;20393;-83
2021/07/08 01:07:43;;;;;;;1.13;0.60;;;;;;;18.82;75.12;100752.13;5059933;28;20094;-84
2021/07/08 01:10:08;;;;;;;1.58;0.80;;;;;;;18.83;75.20;100759.97;5070145;28;20029;-84
2021/07/08 01:12:34;;;;;;;2.05;0.75;;;;;;;18.89;74.84;100764.50;5053344;28;20028;-84
2021/07/08 01:14:59;;;;;;;1.85;0.80;;;;;;;18.84;75.42;100761.63;5053793;28;20137;-84
2021/07/08 01:17:24;;;;;;;1.42;0.85;;;;;;;18.85;74.93;100759.75;5050859;28;20040;-83
2021/07/08 01:19:50;;;;;;;1.85;0.90;;;;;;;18.78;75.74;100765.13;5053509;28;20029;-84
2021/07/08 01:22:15;;;;;;;2.35;0.80;;;;;;;18.81;75.23;100759.34;5052395;28;20120;-84
2021/07/08 01:24:41;;;;;;;1.92;0.90;;;;;;;18.79;75.40;100753.34;5052969;28;20033;-84
2021/07/08 01:27:08;;;;;;;1.80;1.08;;;;;;;18.92;74.49;100757.94;5054370;28;20029;-84
2021/07/08 01:29:34;;;;;;;1.42;0.70;;;;;;;18.88;74.87;100765.56;5052686;28;20100;-84
2021/07/08 01:31:59;;;;;;;1.10;0.80;;;;;;;18.85;75.19;100747.22;5052903;28;20037;-84
2021/07/08 01:34:25;;;;;;;1.48;0.82;;;;;;;18.82;75.38;100746.78;5064795;28;20641;-84
2021/07/08 01:36:50;;;;;;;0.77;0.60;;;;;;;18.80;75.48;100741.59;5054218;28;20029;-84
2021/07/08 01:39:17;;;;;;;1.40;0.80;;;;;;;18.78;75.62;100741.00;5052942;28;20044;-84
2021/07/08 01:41:43;;;;;;;2.33;1.10;;;;;;;18.75;75.21;100736.00;5060117;28;20060;-85
2021/07/08 01:44:08;;;;;;;2.53;0.95;;;;;;;18.75;74.64;100730.63;5047352;28;20098;-84
2021/07/08 01:46:33;;;;;;;1.23;0.80;;;;;;;18.74;74.83;100723.63;5053863;28;20119;-84
2021/07/08 01:48:59;;;;;;;1.67;0.90;;;;;;;18.68;75.06;100735.13;5060195;28;20032;-85
2021/07/08 01:51:30;;;;;;;1.60;1.00;;;;;;;18.69;74.35;100747.53;5073370;28;20676;-84
2021/07/08 01:53:57;;;;;;;1.90;1.00;;;;;;;18.73;74.04;100747.94;5053388;28;20087;-84
2021/07/08 01:56:22;;;;;;;1.67;0.90;;;;;;;18.63;75.19;100751.00;5049253;28;20045;-83
2021/07/08 01:58:49;;;;;;;3.20;1.05;;;;;;;18.54;75.40;100739.59;5052608;28;20036;-84
2021/07/08 02:01:15;;;;;;;1.73;1.00;;;;;;;18.48;75.68;100728.88;5058106;28;20039;-84
2021/07/08 02:03:41;;;;;;;2.05;0.95;;;;;;;18.39;76.27;100726.34;5061483;28;20089;-84
2021/07/08 02:06:07;;;;;;;2.85;0.80;;;;;;;18.43;76.10;100718.78;5055192;28;20029;-84
2021/07/08 02:08:33;;;;;;;2.60;1.08;;;;;;;18.52;75.43;100725.63;5049538;28;20029;-85
2021/07/08 02:10:58;;;;;;;2.72;1.00;;;;;;;18.62;74.90;100728.75;5063253;28;20417;-84
2021/07/08 02:13:23;;;;;;;2.63;1.10;;;;;;;18.66;74.50;100731.81;5054192;28;20044;-84
2021/07/08 02:15:49;;;;;;;1.70;1.00;;;;;;;18.70;74.26;100725.06;5054610;28;20033;-84
2021/07/08 02:18:14;;;;;;;1.92;1.15;;;;;;;18.66;74.35;100731.81;5057148;28;20043;-84
2021/07/08 02:20:40;;;;;;;2.55;1.00;;;;;;;18.63;74.62;100733.06;5056832;28;20033;-84
2021/07/08 02:23:06;;;;;;;1.33;0.85;;;;;;;18.50;75.65;100716.94;5064590;28;20507;-84
2021/07/08 02:25:31;;;;;;;1.30;0.77;;;;;;;18.42;76.17;100717.94;5053301;28;20467;-84
2021/07/08 02:27:58;;;;;;;2.25;1.02;;;;;;;18.50;75.40;100721.47;5053003;28;20032;-84
2021/07/08 02:30:24;;;;;;;2.33;1.02;;;;;;;18.60;75.46;100716.56;5072435;28;20028;-83
2021/07/08 02:32:55;;;;;;;2.28;1.10;;;;;;;18.54;75.30;100718.19;5053184;28;20029;-84
2021/07/08 02:35:22;;;;;;;1.73;0.90;;;;;;;18.59;75.15;100725.63;5054445;28;20039;-83
2021/07/08 02:37:48;;;;;;;1.63;0.90;;;;;;;18.61;75.24;100723.56;5053421;28;20025;-84
2021/07/08 02:40:19;;;;;;;1.23;0.85;;;;;;;18.57;75.57;100731.19;5049543;28;20422;-85
2021/07/08 02:42:50;;;;;;;1.80;0.90;;;;;;;18.51;75.91;100731.16;5048047;28;20037;-84
2021/07/08 02:45:16;;;;;;;1.23;0.90;;;;;;;18.42;76.58;100720.63;5062012;28;20036;-83
2021/07/08 02:47:42;;;;;;;3.75;1.00;;;;;;;18.38;77.11;100714.00;5056689;28;20088;-84
2021/07/08 02:50:08;;;;;;;1.60;1.00;;;;;;;18.35;77.70;100706.38;5052801;28;20029;-85
2021/07/08 02:52:33;;;;;;;1.20;0.90;;;;;;;18.32;77.37;100709.44;5059953;28;20037;-84
2021/07/08 02:54:58;;;;;;;1.45;0.95;;;;;;;18.34;77.57;100714.59;5043848;28;20045;-84
2021/07/08 02:57:24;;;;;;;1.33;0.90;;;;;;;18.37;77.03;100714.19;5055767;28;20523;-84
2021/07/08 02:59:51;;;;;;;1.30;0.93;;;;;;;18.53;76.07;100713.03;5056062;28;20061;-84
2021/07/08 03:02:17;;;;;;;2.33;1.10;;;;;;;18.53;75.57;100724.56;5071371;28;20029;-85
2021/07/08 03:04:42;;;;;;;2.03;0.90;;;;;;;18.49;75.54;100733.19;5054906;28;20031;-84
2021/07/08 03:07:07;;;;;;;2.25;1.00;;;;;;;18.47;75.82;100728.03;5066878;28;20037;-84
2021/07/08 03:09:33;;;;;;;3.13;1.00;;;;;;;18.42;75.97;100734.00;5074327;28;20081;-85
2021/07/08 03:11:58;;;;;;;2.55;0.98;;;;;;;18.38;76.15;100743.47;5058814;28;20520;-84
2021/07/08 03:14:23;;;;;;;1.95;1.00;;;;;;;18.35;76.24;100749.22;5077703;28;20047;-85
2021/07/08 03:16:49;;;;;;;2.05;1.10;;;;;;;18.35;76.32;100751.91;5062044;28;20029;-84
2021/07/08 03:19:14;;;;;;;1.33;0.90;;;;;;;18.34;76.35;100754.75;5064330;28;20041;-84
2021/07/08 03:21:39;;;;;;;1.67;0.90;;;;;;;18.37;75.89;100759.72;5055570;28;20037;-84
2021/07/08 03:24:06;;;;;;;1.75;0.98;;;;;;;18.37;76.23;100757.03;5056710;28;20127;-85
2021/07/08 03:26:32;;;;;;;1.23;0.80;;;;;;;18.34;76.31;100750.22;5072704;28;20052;-84
2021/07/08 03:28:57;;;;;;;0.80;0.70;;;;;;;18.34;76.18;100738.69;5055373;28;20037;-85
2021/07/08 03:31:23;;;;;;;2.30;1.05;;;;;;;18.37;76.06;100749.81;5056506;28;20040;-85
2021/07/08 03:33:48;;;;;;;1.83;1.10;;;;;;;18.40;75.65;100744.09;5055316;28;20354;-84
2021/07/08 03:36:14;;;;;;;2.95;1.23;;;;;;;18.37;76.05;100749.00;5055215;28;20064;-85
2021/07/08 03:38:39;;;;;;;1.67;1.17;;;;;;;18.31;76.78;100744.44;5063719;28;20036;-84
2021/07/08 03:41:04;;;;;;;1.98;1.00;;;;;;;18.28;76.71;100750.19;5057402;28;20044;-85
2021/07/08 03:43:30;;;;;;;2.40;0.90;;;;;;;18.30;76.50;100759.66;5065287;28;20033;-85
2021/07/08 03:45:55;;;;;;;1.45;0.80;;;;;;;18.29;76.86;100762.56;5067738;28;20124;-84
2021/07/08 03:48:20;;;;;;;0.95;0.70;;;;;;;18.33;76.40;100759.28;5063833;28;20080;-84
2021/07/08 03:50:46;;;;;;;0.90;0.80;;;;;;;18.37;76.75;100749.81;5072954;28;20400;-84
2021/07/08 03:53:11;;;;;;;1.27;0.93;;;;;;;18.40;76.22;100740.56;5055983;28;20125;-85
2021/07/08 03:55:37;;;;;;;1.27;0.80;;;;;;;18.38;77.20;100751.50;5058753;28;20044;-85
2021/07/08 03:58:03;;;;;;;2.92;0.98;;;;;;;18.36;77.00;100756.22;5066227;28;20048;-85
2021/07/08 04:00:37;;;;;;;1.38;0.77;;;;;;;18.40;76.53;100757.47;5062065;28;20041;-85
2021/07/08 04:03:09;;;;;;;1.38;0.90;;;;;;;18.38;77.10;100756.03;5055462;28;20045;-85
2021/07/08 04:05:37;;;;;;;5.43;0.80;;;;;;;18.44;76.63;100760.56;5068262;28;20035;-84
2021/07/08 04:08:08;;;;;;;3.10;0.90;;;;;;;18.42;76.84;100759.94;5049183;28;20056;-84
2021/07/08 04:10:36;;;;;;;1.98;1.00;;;;;;;18.39;77.29;100753.13;5063594;28;20516;-85
2021/07/08 04:13:10;;;;;;;1.05;0.80;;;;;;;18.35;77.22;100733.16;5067567;28;20037;-84
2021/07/08 04:15:37;;;;;;;1.13;0.88;;;;;;;18.37;77.81;100733.75;5060061;28;20396;-84
2021/07/08 04:18:04;;;;;;;1.40;0.60;;;;;;;18.38;77.01;100724.72;5059511;28;20488;-85
2021/07/08 04:20:30;;;;;;;0.90;0.70;;;;;;;18.35;77.67;100713.56;5065869;28;20097;-86
2021/07/08 04:22:59;;;;;;;1.42;0.80;;;;;;;18.37;77.22;100719.56;5057869;28;20041;-85
2021/07/08 04:25:25;;;;;;;1.40;0.90;;;;;;;18.35;78.04;100722.44;5055107;28;20127;-85
2021/07/08 04:27:51;;;;;;;1.10;0.80;;;;;;;18.36;77.56;100721.41;5078059;28;20033;-85
2021/07/08 04:30:21;;;;;;;1.45;0.65;;;;;;;18.33;77.79;100716.47;5058087;28;20037;-85
2021/07/08 04:32:49;;;;;;;1.27;0.90;;;;;;;18.31;77.82;100712.31;5062051;28;20025;-83
2021/07/08 04:35:19;;;;;;;1.25;0.90;;;;;;;18.28;78.01;100702.00;5058761;28;20048;-85
2021/07/08 04:37:46;;;;;;;1.70;0.90;;;;;;;18.37;77.34;100700.81;5061189;28;20116;-84
2021/07/08 04:40:14;;;;;;;2.47;0.85;;;;;;;18.39;77.08;100698.75;5063637;28;20033;-84
2021/07/08 04:42:40;;;;;;;2.38;0.90;;;;;;;18.39;77.18;100698.75;5065250;28;20116;-85
2021/07/08 04:45:10;;;;;;;2.28;0.82;;;;;;;18.36;77.92;100699.16;5060245;28;20041;-85
2021/07/08 04:47:38;;;;;;;1.50;0.85;;;;;;;18.33;77.51;100688.84;5055840;28;20048;-84
2021/07/08 04:50:05;;;;;;;1.52;0.88;;;;;;;18.25;78.36;100682.63;5058842;28;20043;-85
2021/07/08 04:52:35;;;;;;;1.65;0.93;;;;;;;18.30;77.79;100665.16;5066045;28;20051;-85
2021/07/08 04:55:00;;;;;;;2.53;1.10;;;;;;;18.35;77.39;100674.25;5058685;28;20049;-84
2021/07/08 04:57:26;;;;;;;1.20;0.90;;;;;;;18.33;78.22;100696.88;5071478;28;20029;-84
2021/07/08 04:59:51;;;;;;;0.95;0.80;;;;;;;18.35;77.30;100729.63;5065143;28;20045;-84
2021/07/08 05:02:16;;;;;;;1.63;0.90;;;;;;;18.32;78.90;100743.41;5059071;28;20722;-84
2021/07/08 05:04:42;;;;;;;1.70;1.00;;;;;;;18.34;77.94;100749.41;5059532;28;20052;-84
2021/07/08 05:07:12;;;;;;;1.15;0.85;;;;;;;18.42;77.62;100741.19;5063828;28;20040;-84
2021/07/08 05:09:38;;;;;;;1.00;0.60;;;;;;;18.48;77.44;100739.59;5059866;28;20040;-84
2021/07/08 05:12:05;;;;;;;1.00;0.80;;;;;;;18.55;77.28;100748.50;5067658;28;20033;-84
2021/07/08 05:14:31;;;;;;;1.20;0.77;;;;;;;18.62;77.42;100749.34;5052978;28;20037;-84
2021/07/08 05:16:57;;;;;;;1.48;0.80;;;;;;;18.62;76.94;100747.50;5059243;28;20072;-84
2021/07/08 05:19:22;;;;;;;1.70;0.95;;;;;;;18.64;76.83;100741.94;5057415;28;20037;-84
2021/07/08 05:21:50;;;;;;;1.80;1.10;;;;;;;18.62;76.97;100744.81;5070100;28;20442;-84
2021/07/08 05:24:20;;;;;;;2.50;1.10;;;;;;;18.59;77.02;100737.19;5040431;28;20040;-84
2021/07/08 05:26:45;;;;;;;3.13;1.10;;;;;;;18.55;77.01;100735.91;5052947;28;20076;-85
2021/07/08 05:29:11;;;;;;;1.70;1.10;;;;;;;18.61;76.90;100732.44;5056046;28;20029;-84
2021/07/08 05:31:36;;;;;;;1.70;1.17;;;;;;;18.68;76.79;100729.78;5055520;28;20040;-84
2021/07/08 05:34:02;;;;;;;1.80;1.00;;;;;;;18.76;77.21;100739.50;5053587;28;20492;-84
2021/07/08 05:36:27;;;;;;;2.25;1.05;;;;;;;18.91;76.57;100747.44;5048641;28;20064;-84
2021/07/08 05:38:53;;;;;;;2.38;1.30;;;;;;;18.99;76.20;100753.41;5054000;28;20122;-84
2021/07/08 05:41:19;;;;;;;2.83;1.20;;;;;;;19.06;76.47;100748.06;5055977;28;20036;-84
2021/07/08 05:43:45;;;;;;;1.95;1.27;;;;;;;19.16;76.01;100761.91;5055195;28;20025;-84
2021/07/08 05:46:10;;;;;;;2.45;1.30;;;;;;;19.21;76.30;100753.25;5056163;28;20381;-84
2021/07/08 05:48:35;;;;;;;2.78;1.77;;;;;;;19.21;77.39;100763.97;5054611;28;20088;-84
2021/07/08 05:51:01;;;;;;;2.88;1.20;;;;;;;19.37;76.38;100770.84;5054532;28;20039;-84
2021/07/08 05:53:26;;;;;;;1.90;1.20;;;;;;;19.54;75.86;100782.81;5053494;28;20105;-84
2021/07/08 05:55:51;;;;;;;3.03;1.40;;;;;;;19.68;75.47;100784.50;5053374;28;20071;-84
2021/07/08 05:58:17;;;;;;;3.05;1.88;;;;;;;19.70;75.31;100803.09;5053002;28;20064;-84
2021/07/08 06:00:42;;;;;;;2.70;1.75;;;;;;;19.80;75.26;100805.38;5054393;28;20036;-84
2021/07/08 06:03:08;;;;;;;3.72;1.17;;;;;;;19.97;73.41;100795.06;5054320;28;20040;-85
2021/07/08 06:05:33;;;;;;;1.83;0.93;;;;;;;19.84;73.71;100788.66;5062821;28;20501;-85
2021/07/08 06:07:58;;;;;;;1.13;0.73;;;;;;;19.81;73.85;100788.25;5060581;28;20029;-85
2021/07/08 06:10:24;;;;;;;2.53;0.80;;;;;;;19.70;73.58;100790.50;5052535;28;20036;-85
2021/07/08 06:12:49;;;;;;;1.17;0.80;;;;;;;19.66;73.77;100794.63;5053171;28;20033;-85
2021/07/08 06:15:15;;;;;;;1.50;0.80;;;;;;;19.74;74.24;100793.63;5051642;28;20044;-85
2021/07/08 06:17:40;;;;;;;1.42;0.77;;;;;;;19.88;73.99;100803.31;5069097;28;20028;-85
2021/07/08 06:20:06;;;;;;;1.30;0.70;;;;;;;19.98;73.84;100805.59;5052644;28;20038;-85
2021/07/08 06:22:32;;;;;;;0.95;0.70;;;;;;;20.06;73.54;100812.59;5051950;28;20522;-84
2021/07/08 06:24:57;;;;;;;1.42;0.90;;;;;;;20.11;74.00;100816.31;5058949;28;20040;-85
2021/07/08 06:27:23;;;;;;;2.13;1.17;;;;;;;20.12;73.71;100825.22;5066791;28;20033;-85
2021/07/08 06:29:48;;;;;;;1.92;1.00;;;;;;;20.10;72.79;100838.81;5060818;28;20032;-85
2021/07/08 06:32:17;;;;;;;2.83;1.08;;;;;;;20.05;73.29;100841.31;5057902;28;20611;-85
2021/07/08 06:34:43;;;;;;;1.90;1.13;;;;;;;20.04;74.29;100844.19;5038523;28;20057;-85
2021/07/08 06:37:08;;;;;;;4.10;1.40;;;;;;;20.09;73.69;100842.56;5051648;28;20393;-84
2021/07/08 06:39:33;;;;;;;2.75;1.30;;;;;;;20.18;73.98;100842.34;5053496;28;20112;-84
2021/07/08 06:41:59;;;;;;;2.75;1.52;;;;;;;20.24;73.95;100853.09;5074762;28;20056;-84
2021/07/08 06:44:24;;;;;;;2.45;1.70;;;;;;;20.33;73.66;100842.94;5064028;28;20041;-84
2021/07/08 06:46:51;;;;;;;3.95;1.60;;;;;;;20.37;73.52;100850.38;5057744;28;20035;-84
2021/07/08 06:49:17;;;;;;;2.25;1.30;;;;;;;20.46;73.55;100845.59;5043863;28;20471;-84
2021/07/08 06:51:42;;;;;;;3.63;1.35;;;;;;;20.60;73.76;100841.06;5052373;28;20063;-84
2021/07/08 06:54:07;;;;;;;4.50;1.75;;;;;;;20.70;73.56;100840.63;5050346;28;20037;-84
2021/07/08 06:56:33;;;;;;;4.68;2.10;;;;;;;20.73;73.65;100842.91;5051569;28;20387;-85
2021/07/08 06:58:59;;;;;;;2.38;1.70;;;;;;;20.97;73.42;100836.00;5051138;28;20051;-84
2021/07/08 07:01:24;;;;;;;2.90;1.48;;;;;;;21.32;72.73;100833.75;5051840;28;20037;-85
2021/07/08 07:03:49;;;;;;;2.00;1.50;;;;;;;21.62;72.50;100839.41;5059768;28;20029;-84
2021/07/08 07:06:15;;;;;;;2.05;1.10;;;;;;;21.89;70.74;100836.53;5052003;28;20475;-84
2021/07/08 07:08:41;;;;;;;1.15;0.80;;;;;;;22.26;69.06;100837.50;5057262;28;20025;-84
2021/07/08 07:11:07;;;;;;;4.05;1.70;;;;;;;22.72;68.23;100831.88;5058308;28;20500;-84
2021/07/08 07:13:33;;;;;;;3.75;1.25;;;;;;;22.49;68.82;100827.94;5048754;28;20087;-84
2021/07/08 07:15:58;;;;;;;2.03;1.20;;;;;;;22.29;68.10;100821.94;5053253;28;20049;-85
2021/07/08 07:18:24;;;;;;;2.13;1.30;;;;;;;22.17;69.10;100816.44;5056066;28;20033;-85
2021/07/08 07:20:49;;;;;;;1.50;1.00;;;;;;;22.07;69.95;100819.59;5058718;28;20092;-85
2021/07/08 07:23:15;;;;;;;2.58;1.20;;;;;;;22.12;70.03;100811.69;5050443;28;20033;-85
2021/07/08 07:25:41;;;;;;;2.38;1.20;;;;;;;22.01;70.61;100825.88;5053631;28;20036;-85
2021/07/08 07:28:08;;;;;;;2.38;1.17;;;;;;;21.91;70.98;100825.56;5071993;28;20097;-85
2021/07/08 07:30:34;;;;;;;2.17;0.93;;;;;;;21.91;71.40;100822.88;5048711;28;20071;-85
2021/07/08 07:32:59;;;;;;;1.45;1.00;;;;;;;21.84;70.79;100825.59;5049510;28;20086;-85
2021/07/08 07:35:25;;;;;;;1.02;0.80;;;;;;;21.81;71.09;100818.78;5054448;28;20041;-84
2021/07/08 07:37:51;;;;;;;1.88;1.10;;;;;;;21.77;70.65;100822.13;5075223;28;20499;-84
2021/07/08 07:40:17;;;;;;;2.58;1.60;;;;;;;21.66;71.07;100815.56;5061505;28;20135;-85
2021/07/08 07:42:43;;;;;;;3.30;1.30;;;;;;;21.70;71.17;100807.91;5059310;28;20112;-85
2021/07/08 07:45:09;;;;;;;3.17;1.50;;;;;;;21.82;70.99;100806.97;5050543;28;20061;-85
2021/07/08 07:47:35;;;;;;;2.67;1.50;;;;;;;22.10;69.31;100805.72;5051979;28;20256;-85
2021/07/08 07:50:01;;;;;;;2.08;1.35;;;;;;;22.31;70.17;100814.44;5058826;28;20780;-85
2021/07/08 07:52:26;;;;;;;2.25;1.20;;;;;;;22.43;69.41;100818.06;5048460;28;20048;-85
2021/07/08 07:54:52;;;;;;;3.42;1.13;;;;;;;22.65;69.01;100813.88;5055420;28;20040;-84
2021/07/08 07:57:18;;;;;;;3.03;1.30;;;;;;;23.44;67.84;100810.41;5062452;28;20044;-85
2021/07/08 07:59:43;;;;;;;4.07;1.40;;;;;;;24.15;64.85;100801.41;5052160;28;20366;-85
2021/07/08 08:02:15;;;;;;;1.90;1.20;;;;;;;25.06;62.92;100808.19;5055892;28;20044;-85
2021/07/08 08:10:08;;;;;;;1.80;1.10;;;;;;;26.40;57.38;100815.63;5053843;28;20091;-88
2021/07/08 08:12:33;;;;;;;2.25;0.90;;;;;;;26.54;56.82;100826.16;5053629;28;20025;-87
2021/07/08 08:15:03;;;;;;;1.27;0.80;;;;;;;26.90;53.75;100821.97;5055546;28;20099;-88
2021/07/08 08:17:28;;;;;;;1.88;0.90;;;;;;;27.10;54.07;100824.94;5061654;28;20499;-87
2021/07/08 08:19:53;;;;;;;1.90;1.20;;;;;;;26.23;56.73;100818.34;5053379;28;20052;-88
2021/07/08 08:22:20;;;;;;;1.48;0.93;;;;;;;26.23;55.74;100817.53;5052829;28;20041;-88
2021/07/08 08:24:45;;;;;;;1.08;0.77;;;;;;;26.40;57.30;100834.59;5054831;28;20539;-88
2021/07/08 08:27:10;;;;;;;1.30;0.75;;;;;;;26.48;56.55;100828.75;5061565;28;20071;-87
2021/07/08 08:29:37;;;;;;;1.83;1.00;;;;;;;26.47;53.82;100832.53;5076151;28;20041;-87
2021/07/08 08:32:03;;;;;;;1.48;1.05;;;;;;;26.40;51.60;100823.75;5052840;28;20029;-86
2021/07/08 08:34:28;;;;;;;1.67;0.90;;;;;;;26.78;51.60;100830.25;5052425;28;20110;-86
2021/07/08 08:36:54;;;;;;;1.38;0.90;;;;;;;26.62;51.66;100826.50;5050158;28;20043;-87
2021/07/08 08:39:20;;;;;;;1.17;0.70;;;;;;;26.43;52.36;100817.00;5050059;28;20486;-87
2021/07/08 08:41:45;;;;;;;0.95;0.73;;;;;;;26.35;49.09;100826.38;5063706;28;20492;-87
2021/07/08 08:44:10;;;;;;;1.17;0.77;;;;;;;26.13;52.28;100812.78;5050841;28;20057;-87
2021/07/08 08:46:36;;;;;;;1.02;0.80;;;;;;;26.12;52.95;100813.84;5057120;28;20470;-86
2021/07/08 08:49:04;;;;;;;1.00;0.77;;;;;;;25.88;52.52;100813.22;5041671;28;20044;-86
2021/07/08 08:51:30;;;;;;;1.52;0.80;;;;;;;25.86;50.00;100818.03;5053146;28;20060;-86
2021/07/08 08:53:55;;;;;;;1.02;0.80;;;;;;;25.54;51.61;100815.06;5051658;28;20362;-86
2021/07/08 08:56:21;;;;;;;1.17;0.77;;;;;;;25.32;48.84;100823.06;5050935;28;20047;-87
2021/07/08 08:58:46;;;;;;;2.35;1.00;;;;;;;24.94;50.03;100821.75;5055760;28;20064;-87
2021/07/08 09:01:16;;;;;;;1.40;0.90;;;;;;;24.82;50.27;100823.69;5062432;28;20021;-87
2021/07/08 09:03:42;;;;;;;1.73;1.00;;;;;;;24.43;51.08;100810.66;5068810;28;20101;-87
2021/07/08 09:06:09;;;;;;;0.77;0.70;;;;;;;24.29;52.35;100815.50;5055922;28;20116;-87
2021/07/08 09:08:36;;;;;;;1.83;0.70;;;;;;;24.07;52.44;100800.91;5051603;28;20519;-85
2021/07/08 09:11:01;;;;;;;1.90;0.90;;;;;;;24.06;53.25;100812.78;5051315;28;19917;-86
2021/07/08 09:13:28;;;;;;;1.20;0.90;;;;;;;23.74;53.70;100821.22;5052980;28;20033;-86
2021/07/08 09:15:54;;;;;;;1.73;0.90;;;;;;;23.61;54.20;100818.66;5051275;28;20288;-86
2021/07/08 09:18:26;;;;;;;1.55;0.80;;;;;;;23.56;54.94;100821.25;5060242;28;20415;-86
2021/07/08 09:20:52;;;;;;;1.35;0.90;;;;;;;23.51;57.14;100817.34;5060191;28;20033;-86
2021/07/08 09:23:18;;;;;;;1.17;0.90;;;;;;;23.62;56.04;100812.22;5054438;28;20091;-86
2021/07/08 09:25:47;;;;;;;1.65;1.00;;;;;;;23.56;57.79;100810.44;5055867;28;20033;-86
2021/07/08 09:28:21;;;;;;;2.47;1.17;;;;;;;23.58;56.58;100813.75;5057401;28;20086;-86
2021/07/08 09:31:17;;;;;;;2.00;1.30;;;;;;;23.74;56.84;100819.31;5045206;28;20107;-86
2021/07/08 09:33:42;;;;;;;1.63;1.10;;;;;;;23.85;57.79;100819.56;5043770;28;20029;-86
2021/07/08 09:36:16;;;;;;;1.75;1.20;;;;;;;24.07;55.92;100825.22;5054315;28;20044;-86
2021/07/08 09:38:48;;;;;;;1.40;1.10;;;;;;;23.91;56.72;100829.47;5075953;28;20087;-87
2021/07/08 09:41:17;;;;;;;1.30;0.95;;;;;;;23.89;56.89;100832.38;5055757;28;20029;-86
2021/07/08 09:43:44;;;;;;;2.13;1.20;;;;;;;23.94;55.22;100840.59;5061141;28;20496;-86
2021/07/08 09:46:11;;;;;;;3.10;1.13;;;;;;;23.84;55.60;100837.66;5062268;28;20041;-87
2021/07/08 09:48:37;;;;;;;1.27;1.00;;;;;;;23.89;56.17;100831.56;5062531;28;20029;-86
2021/07/08 09:51:03;;;;;;;1.60;0.95;;;;;;;23.93;56.51;100832.72;5049416;28;20125;-87
2021/07/08 09:53:30;;;;;;;3.85;1.13;;;;;;;23.89;56.52;100840.47;5053258;28;20025;-88
2021/07/08 09:58:55;;;;;;;1.92;1.15;;;;;;;23.78;55.64;100851.25;5048007;28;20414;-85
2021/07/08 10:01:21;;;;;;;1.92;1.30;;;;;;;23.68;56.20;100843.69;5056393;28;20028;-86
2021/07/08 10:03:50;;;;;;;1.60;1.10;;;;;;;23.61;55.87;100842.97;5051826;28;20112;-86
2021/07/08 10:06:18;;;;;;;2.28;1.15;;;;;;;23.56;56.68;100849.06;5049456;28;20037;-88
2021/07/08 10:08:44;;;;;;;1.40;1.15;;;;;;;23.60;57.05;100854.84;5048462;28;20491;-88
2021/07/08 10:11:12;;;;;;;2.08;1.08;;;;;;;23.56;56.90;100845.53;5060370;28;20044;-86
2021/07/08 10:13:39;;;;;;;1.88;1.25;;;;;;;23.24;57.93;100843.91;5076383;28;20044;-86
2021/07/08 10:16:05;;;;;;;1.50;1.00;;;;;;;23.36;58.72;100843.94;5056928;28;20095;-87
2021/07/08 10:18:32;;;;;;;1.23;0.90;;;;;;;23.48;58.00;100844.00;5060459;28;20043;-88
2021/07/08 10:20:59;;;;;;;1.40;1.08;;;;;;;23.62;56.92;100853.56;5057930;28;20408;-87
2021/07/08 10:23:26;;;;;;;1.60;1.00;;;;;;;23.54;57.37;100856.56;5049425;28;20117;-87
2021/07/08 10:25:52;;;;;;;1.30;1.10;;;;;;;23.59;57.46;100858.56;5049751;28;20041;-87
2021/07/08 10:28:18;;;;;;;1.00;0.85;;;;;;;23.68;57.34;100858.00;5050770;28;20029;-87
2021/07/08 10:30:44;;;;;;;1.25;1.00;;;;;;;23.59;59.87;100859.38;5046490;28;20048;-87
2021/07/08 10:33:10;;;;;;;1.40;1.05;;;;;;;23.51;60.14;100862.41;5052235;28;20056;-87
2021/07/08 10:35:52;;;;;;;0.93;0.80;;;;;;;23.54;63.89;100853.84;5049193;28;20486;-87
2021/07/08 10:38:39;;;;;;;1.10;0.82;;;;;;;23.58;62.16;100851.53;5049675;28;20489;-87
2021/07/08 10:41:07;;;;;;;0.63;0.63;;;;;;;23.68;60.23;100847.22;5070264;28;20031;-87
2021/07/08 10:43:43;;;;;;;1.30;1.08;;;;;;;23.65;59.48;100847.69;5047585;28;20037;-87
2021/07/08 10:46:11;;;;;;;3.45;1.30;;;;;;;23.68;58.97;100847.22;5034229;28;20038;-87
2021/07/08 10:48:50;;;;;;;2.75;1.20;;;;;;;23.58;59.24;100846.13;5050403;28;20033;-87
2021/07/08 10:51:28;;;;;;;1.40;1.00;;;;;;;23.49;60.41;100842.94;5043992;28;20029;-87
2021/07/08 10:53:54;;;;;;;1.35;0.98;;;;;;;23.34;60.70;100842.53;5047085;28;20392;-88
2021/07/08 10:56:22;;;;;;;1.38;1.10;;;;;;;23.09;61.62;100846.16;5048049;28;20036;-87
2021/07/08 10:58:51;;;;;;;1.73;1.33;;;;;;;23.02;61.82;100840.84;5049582;28;20041;-87
2021/07/08 11:01:27;;;;;;;1.50;1.20;;;;;;;22.92;63.15;100835.13;5047629;28;20090;-88
2021/07/08 11:04:03;;;;;;;1.70;1.20;;;;;;;22.87;62.82;100829.59;5052134;28;20039;-88
2021/07/08 11:06:31;;;;;;;1.40;1.02;;;;;;;22.76;64.52;100833.03;5044633;28;20041;-88
2021/07/08 11:09:05;;;;;;;1.25;1.05;;;;;;;22.46;65.93;100834.59;5049653;28;20043;-89
2021/07/08 11:11:30;;;;;;;1.42;1.10;;;;;;;22.14;68.14;100835.69;5048309;28;20489;-87
2021/07/08 11:14:23;;;;;;;1.50;1.10;;;;;;;21.93;73.34;100835.06;5059172;28;20029;-88
2021/07/08 11:17:01;;;;;;;1.58;1.30;;;;;;;21.67;73.16;100836.06;5056592;28;20307;-87
2021/07/08 11:19:26;;;;;;;2.83;1.80;;;;;;;21.47;76.57;100830.81;5059286;28;20060;-87
2021/07/08 11:21:55;;;;;;;2.33;1.60;;;;;;;21.29;76.85;100838.75;5050819;28;20052;-86
2021/07/08 11:24:48;;;;;;;3.10;1.88;;;;;;;21.18;76.31;100840.25;5050935;28;20333;-87
2021/07/08 11:27:18;;;;;;;2.70;1.92;;;;;;;21.18;76.15;100842.94;5050387;28;20037;-86
2021/07/08 11:29:48;;;;;;;4.13;2.30;;;;;;;21.23;79.93;100848.50;5044333;28;20040;-88
2021/07/08 11:32:40;;;;;;;5.30;3.42;;;;;;;21.24;76.94;100844.78;5042808;28;20029;-87